createdAt,value
2022-12-13T00:00:10.000Z,34.36
2022-12-13T00:00:41.415Z,34.28
2022-12-13T00:01:12.809Z,34.54
2022-12-13T00:01:44.289Z,34.42
2022-12-13T00:02:15.719Z,34.41
2022-12-13T00:02:47.113Z,34.28
2022-12-13T00:03:18.587Z,34.18
2022-12-13T00:03:50.054Z,34.07
2022-12-13T00:04:21.584Z,34.31
2022-12-13T00:04:53.044Z,33.96
2022-12-13T00:05:24.441Z,34.42
2022-12-13T00:05:55.844Z,34.23
2022-12-13T00:06:27.234Z,34.34
2022-12-13T00:06:58.642Z,34.24
2022-12-13T00:07:30.032Z,34.31
2022-12-13T00:08:01.493Z,34.33
2022-12-13T00:08:33.036Z,34.29
2022-12-13T00:09:04.428Z,34.70
2022-12-13T00:09:35.831Z,34.41
2022-12-13T00:10:07.227Z,34.68
2022-12-13T00:10:38.622Z,34.51
2022-12-13T00:11:10.010Z,34.33
2022-12-13T00:11:41.406Z,34.73
2022-12-13T00:12:12.815Z,34.75
2022-12-13T00:12:44.216Z,34.08
2022-12-13T00:13:15.638Z,34.52
2022-12-13T00:13:47.106Z,34.40
2022-12-13T00:14:18.503Z,34.37
2022-12-13T00:14:49.898Z,34.55
2022-12-13T00:15:21.291Z,34.22
2022-12-13T00:15:52.691Z,34.34
2022-12-13T00:16:24.157Z,34.78
2022-12-13T00:16:55.711Z,34.84
2022-12-13T00:17:27.153Z,34.78
2022-12-13T00:17:58.562Z,34.78
2022-12-13T00:18:29.956Z,34.29
2022-12-13T00:19:01.845Z,34.54
2022-12-13T00:19:33.235Z,34.70
2022-12-13T00:20:04.622Z,34.83
2022-12-13T00:20:36.006Z,34.51
2022-12-13T00:21:07.398Z,34.57
2022-12-13T00:21:38.788Z,34.71
2022-12-13T00:22:10.175Z,34.56
2022-12-13T00:22:41.564Z,34.61
2022-12-13T00:23:12.977Z,34.76
2022-12-13T00:23:44.399Z,34.63
2022-12-13T00:24:15.821Z,34.48
2022-12-13T00:24:47.241Z,34.63
2022-12-13T00:25:18.647Z,34.39
2022-12-13T00:25:50.038Z,34.66
2022-12-13T00:26:21.429Z,34.82
2022-12-13T00:26:52.822Z,34.90
2022-12-13T00:27:24.225Z,34.58
2022-12-13T00:27:55.631Z,34.31
2022-12-13T00:28:27.040Z,34.30
2022-12-13T00:28:58.422Z,34.49
2022-12-13T00:29:29.996Z,34.30
2022-12-13T00:30:01.414Z,34.81
2022-12-13T00:30:32.840Z,34.86
2022-12-13T00:31:35.250Z,34.53
2022-12-13T00:32:00.384Z,34.58
2022-12-13T00:32:32.383Z,34.80
2022-12-13T00:33:03.787Z,34.60
2022-12-13T00:33:35.176Z,34.79
2022-12-13T00:34:06.568Z,34.54
2022-12-13T00:34:38.013Z,34.81
2022-12-13T00:35:09.422Z,34.32
2022-12-13T00:35:40.831Z,34.89
2022-12-13T00:36:12.242Z,34.45
2022-12-13T00:36:43.629Z,34.75
2022-12-13T00:37:15.036Z,34.65
2022-12-13T00:37:46.424Z,34.70
2022-12-13T00:38:17.831Z,34.61
2022-12-13T00:38:49.247Z,34.45
2022-12-13T00:39:20.643Z,34.20
2022-12-13T00:39:52.067Z,34.63
2022-12-13T00:40:23.479Z,34.49
2022-12-13T00:40:54.867Z,34.43
2022-12-13T00:41:26.251Z,34.56
2022-12-13T00:41:57.638Z,34.80
2022-12-13T00:42:29.029Z,34.67
2022-12-13T00:43:00.430Z,34.60
2022-12-13T00:43:31.835Z,34.28
2022-12-13T00:44:03.222Z,34.83
2022-12-13T00:44:34.616Z,34.82
2022-12-13T00:45:06.130Z,34.67
2022-12-13T00:45:37.524Z,34.46
2022-12-13T00:46:08.986Z,34.78
2022-12-13T00:46:40.400Z,34.68
2022-12-13T00:47:11.812Z,34.26
2022-12-13T00:47:43.195Z,34.36
2022-12-13T00:48:14.592Z,34.51
2022-12-13T00:48:45.980Z,35.03
2022-12-13T00:49:17.361Z,34.88
2022-12-13T00:49:48.758Z,34.95
2022-12-13T00:50:20.195Z,34.65
2022-12-13T00:50:51.583Z,34.71
2022-12-13T00:51:22.985Z,34.65
2022-12-13T00:51:54.372Z,34.60
2022-12-13T00:52:25.760Z,34.88
2022-12-13T00:52:57.167Z,34.88
2022-12-13T00:53:28.554Z,34.88
2022-12-13T00:53:59.944Z,34.34
2022-12-13T00:54:31.335Z,34.72
2022-12-13T00:55:02.727Z,34.44
2022-12-13T00:55:34.251Z,34.50
2022-12-13T00:56:05.634Z,34.83
2022-12-13T00:56:37.043Z,34.64
2022-12-13T00:57:08.459Z,34.51
2022-12-13T00:57:39.842Z,34.96
2022-12-13T00:58:11.236Z,34.49
2022-12-13T00:58:46.068Z,34.92
2022-12-13T00:59:20.093Z,34.46
2022-12-13T00:59:51.486Z,34.44
2022-12-13T01:00:22.875Z,34.40
2022-12-13T01:00:54.382Z,34.34
2022-12-13T01:01:25.845Z,34.79
2022-12-13T01:01:57.268Z,34.41
2022-12-13T01:02:28.674Z,34.38
2022-12-13T01:03:00.229Z,34.59
2022-12-13T01:03:31.745Z,34.55
2022-12-13T01:04:03.173Z,34.36
2022-12-13T01:04:34.615Z,34.54
2022-12-13T01:05:06.003Z,34.79
2022-12-13T01:06:13.132Z,34.48
2022-12-13T01:06:28.889Z,34.84
2022-12-13T01:07:00.289Z,34.71
2022-12-13T01:07:31.676Z,34.71
2022-12-13T01:08:03.082Z,34.62
2022-12-13T01:08:34.532Z,35.06
2022-12-13T01:09:05.951Z,34.72
2022-12-13T01:09:37.359Z,34.67
2022-12-13T01:10:08.750Z,34.68
2022-12-13T01:10:40.147Z,34.92
2022-12-13T01:11:11.540Z,34.72
2022-12-13T01:11:43.051Z,35.13
2022-12-13T01:12:14.455Z,35.06
2022-12-13T01:12:45.856Z,34.48
2022-12-13T01:13:17.264Z,34.39
2022-12-13T01:13:48.662Z,34.91
2022-12-13T01:14:20.060Z,35.01
2022-12-13T01:14:55.957Z,34.71
2022-12-13T01:15:27.631Z,35.01
2022-12-13T01:15:59.020Z,35.27
2022-12-13T01:16:30.492Z,35.13
2022-12-13T01:17:02.086Z,34.77
2022-12-13T01:17:33.534Z,34.53
2022-12-13T01:18:04.938Z,34.77
2022-12-13T01:18:36.327Z,34.45
2022-12-13T01:19:07.729Z,34.61
2022-12-13T01:19:39.120Z,34.58
2022-12-13T01:20:10.505Z,35.02
2022-12-13T01:20:41.924Z,34.91
2022-12-13T01:21:13.329Z,35.09
2022-12-13T01:21:44.712Z,35.02
2022-12-13T01:22:16.196Z,34.55
2022-12-13T01:22:47.586Z,34.94
2022-12-13T01:23:18.993Z,34.73
2022-12-13T01:23:50.382Z,34.62
2022-12-13T01:24:21.775Z,35.02
2022-12-13T01:24:53.167Z,34.77
2022-12-13T01:25:24.578Z,34.88
2022-12-13T01:25:55.976Z,34.79
2022-12-13T01:26:27.381Z,35.06
2022-12-13T01:26:58.772Z,34.97
2022-12-13T01:27:30.251Z,34.71
2022-12-13T01:28:01.709Z,34.59
2022-12-13T01:28:33.090Z,35.09
2022-12-13T01:29:04.481Z,35.06
2022-12-13T01:29:35.889Z,35.07
2022-12-13T01:30:07.300Z,34.92
2022-12-13T01:30:38.744Z,35.07
2022-12-13T01:31:10.245Z,34.79
2022-12-13T01:31:41.897Z,34.74
2022-12-13T01:32:13.495Z,35.17
2022-12-13T01:32:45.047Z,34.64
2022-12-13T01:33:16.450Z,34.74
2022-12-13T01:33:47.840Z,34.96
2022-12-13T01:34:19.241Z,34.91
2022-12-13T01:34:50.630Z,35.01
2022-12-13T01:35:22.039Z,34.78
2022-12-13T01:35:53.422Z,34.98
2022-12-13T01:36:27.963Z,34.73
2022-12-13T01:36:59.673Z,34.70
2022-12-13T01:37:31.087Z,34.87
2022-12-13T01:38:16.209Z,34.84
2022-12-13T01:38:47.745Z,34.99
2022-12-13T01:39:19.146Z,34.78
2022-12-13T01:39:50.532Z,34.95
2022-12-13T01:40:21.924Z,34.75
2022-12-13T01:40:58.781Z,34.77
2022-12-13T01:41:30.539Z,34.96
2022-12-13T01:42:01.928Z,35.08
2022-12-13T01:42:33.324Z,34.85
2022-12-13T01:43:14.555Z,35.02
2022-12-13T01:43:46.527Z,35.16
2022-12-13T01:44:17.919Z,35.13
2022-12-13T01:44:49.311Z,35.00
2022-12-13T01:45:20.696Z,34.92
2022-12-13T01:45:52.146Z,34.66
2022-12-13T01:46:23.618Z,34.66
2022-12-13T01:46:55.083Z,34.81
2022-12-13T01:47:26.480Z,34.87
2022-12-13T01:47:57.871Z,34.90
2022-12-13T01:48:29.477Z,34.86
2022-12-13T01:49:00.878Z,34.74
2022-12-13T01:49:32.263Z,34.57
2022-12-13T01:50:03.672Z,34.81
2022-12-13T01:50:35.059Z,34.58
2022-12-13T01:51:06.451Z,34.66
2022-12-13T01:51:37.841Z,34.84
2022-12-13T01:52:09.230Z,34.94
2022-12-13T01:52:40.646Z,34.96
2022-12-13T01:53:12.043Z,34.73
2022-12-13T01:53:43.430Z,34.74
2022-12-13T01:54:21.310Z,34.66
2022-12-13T01:54:53.363Z,35.08
2022-12-13T01:55:24.751Z,35.00
2022-12-13T01:55:56.155Z,34.94
2022-12-13T01:56:27.554Z,34.67
2022-12-13T01:57:00.734Z,34.69
2022-12-13T01:57:32.483Z,35.02
2022-12-13T01:58:03.877Z,34.82
2022-12-13T01:58:35.263Z,34.75
2022-12-13T01:59:06.690Z,34.96
2022-12-13T01:59:38.082Z,34.95
2022-12-13T02:00:09.476Z,35.00
2022-12-13T02:00:41.109Z,35.04
2022-12-13T02:01:12.542Z,35.16
2022-12-13T02:01:44.000Z,34.51
2022-12-13T02:02:15.450Z,34.67
2022-12-13T02:02:46.840Z,34.94
2022-12-13T02:03:20.793Z,34.88
2022-12-13T02:03:53.246Z,34.80
2022-12-13T02:04:24.814Z,34.79
2022-12-13T02:04:56.244Z,34.61
2022-12-13T02:05:27.764Z,34.83
2022-12-13T02:06:00.531Z,34.94
2022-12-13T02:06:32.131Z,34.87
2022-12-13T02:07:03.521Z,35.08
2022-12-13T02:07:34.931Z,34.74
2022-12-13T02:08:06.359Z,35.11
2022-12-13T02:08:37.857Z,34.98
2022-12-13T02:09:09.266Z,35.05
2022-12-13T02:09:40.696Z,34.82
2022-12-13T02:10:12.091Z,34.95
2022-12-13T02:10:43.476Z,35.01
2022-12-13T02:11:14.882Z,35.20
2022-12-13T02:11:46.281Z,34.85
2022-12-13T02:12:17.682Z,34.77
2022-12-13T02:12:49.071Z,34.40
2022-12-13T02:13:20.460Z,34.80
2022-12-13T02:13:51.860Z,34.88
2022-12-13T02:14:23.268Z,34.87
2022-12-13T02:14:54.722Z,34.53
2022-12-13T02:15:32.032Z,35.23
2022-12-13T02:16:03.468Z,34.88
2022-12-13T02:16:34.999Z,34.85
2022-12-13T02:17:06.422Z,34.57
2022-12-13T02:17:43.837Z,34.57
2022-12-13T02:18:16.974Z,34.84
2022-12-13T02:18:48.377Z,35.15
2022-12-13T02:19:19.766Z,34.67
2022-12-13T02:19:51.165Z,35.00
2022-12-13T02:20:22.705Z,34.69
2022-12-13T02:20:54.086Z,34.92
2022-12-13T02:21:25.473Z,34.77
2022-12-13T02:21:56.878Z,34.83
2022-12-13T02:22:28.274Z,34.87
2022-12-13T02:22:59.686Z,35.02
2022-12-13T02:23:31.075Z,34.86
2022-12-13T02:24:09.148Z,34.86
2022-12-13T02:24:40.788Z,35.00
2022-12-13T02:25:12.311Z,34.54
2022-12-13T02:25:44.023Z,34.94
2022-12-13T02:26:15.410Z,34.80
2022-12-13T02:26:46.881Z,34.93
2022-12-13T02:27:18.365Z,34.73
2022-12-13T02:28:02.317Z,34.70
2022-12-13T02:28:33.716Z,34.89
2022-12-13T02:29:05.107Z,34.65
2022-12-13T02:29:36.491Z,35.23
2022-12-13T02:30:07.891Z,34.65
2022-12-13T02:30:39.361Z,35.13
2022-12-13T02:31:10.853Z,34.94
2022-12-13T02:31:42.295Z,34.76
2022-12-13T02:32:13.710Z,34.84
2022-12-13T02:32:45.119Z,34.70
2022-12-13T02:33:21.583Z,35.08
2022-12-13T02:33:53.363Z,35.15
2022-12-13T02:34:24.759Z,34.89
2022-12-13T02:34:56.150Z,34.69
2022-12-13T02:35:27.548Z,35.04
2022-12-13T02:35:59.035Z,34.93
2022-12-13T02:36:36.651Z,34.84
2022-12-13T02:37:18.131Z,34.90
2022-12-13T02:37:49.989Z,35.13
2022-12-13T02:38:24.584Z,34.85
2022-12-13T02:38:56.278Z,34.74
2022-12-13T02:39:30.470Z,35.16
2022-12-13T02:40:02.371Z,34.93
2022-12-13T02:40:33.763Z,34.85
2022-12-13T02:41:05.224Z,34.84
2022-12-13T02:41:36.605Z,34.87
2022-12-13T02:42:07.990Z,35.06
2022-12-13T02:42:53.113Z,34.91
2022-12-13T02:43:24.526Z,34.96
2022-12-13T02:44:05.041Z,34.57
2022-12-13T02:44:54.005Z,34.95
2022-12-13T02:45:25.596Z,35.04
2022-12-13T02:45:57.274Z,34.86
2022-12-13T02:46:28.834Z,34.94
2022-12-13T02:47:00.265Z,34.95
2022-12-13T02:47:31.650Z,35.03
2022-12-13T02:48:03.050Z,35.05
2022-12-13T02:48:34.459Z,34.91
2022-12-13T02:49:07.774Z,34.84
2022-12-13T02:49:39.164Z,34.89
2022-12-13T02:50:10.566Z,34.88
2022-12-13T02:50:41.953Z,34.86
2022-12-13T02:51:13.363Z,34.85
2022-12-13T02:51:44.785Z,35.13
2022-12-13T02:52:22.366Z,34.53
2022-12-13T02:52:54.168Z,35.10
2022-12-13T02:53:25.567Z,34.62
2022-12-13T02:53:56.950Z,34.87
2022-12-13T02:54:28.359Z,35.14
2022-12-13T02:54:59.762Z,34.63
2022-12-13T02:55:31.155Z,34.79
2022-12-13T02:56:02.548Z,35.12
2022-12-13T02:56:34.184Z,35.12
2022-12-13T02:57:05.572Z,34.91
2022-12-13T02:57:36.962Z,35.17
2022-12-13T02:58:08.366Z,35.24
2022-12-13T02:58:39.756Z,34.54
2022-12-13T02:59:11.163Z,34.95
2022-12-13T02:59:42.571Z,35.03
2022-12-13T03:00:13.968Z,34.68
2022-12-13T03:00:45.376Z,34.99
2022-12-13T03:01:28.508Z,35.16
2022-12-13T03:02:09.532Z,34.94
2022-12-13T03:02:42.051Z,34.58
2022-12-13T03:03:15.177Z,34.75
2022-12-13T03:03:46.708Z,35.18
2022-12-13T03:04:20.094Z,34.57
2022-12-13T03:04:54.930Z,35.00
2022-12-13T03:05:26.319Z,34.73
2022-12-13T03:05:57.721Z,35.07
2022-12-13T03:06:34.194Z,34.99
2022-12-13T03:07:06.101Z,34.72
2022-12-13T03:07:37.495Z,34.93
2022-12-13T03:08:08.977Z,34.57
2022-12-13T03:08:40.400Z,34.58
2022-12-13T03:09:11.813Z,34.64
2022-12-13T03:09:43.226Z,34.93
2022-12-13T03:10:14.618Z,34.96
2022-12-13T03:10:46.017Z,34.98
2022-12-13T03:11:17.410Z,34.99
2022-12-13T03:11:48.798Z,34.67
2022-12-13T03:12:20.273Z,35.13
2022-12-13T03:12:51.732Z,34.66
2022-12-13T03:13:23.130Z,35.11
2022-12-13T03:13:54.549Z,34.98
2022-12-13T03:14:29.349Z,34.54
2022-12-13T03:15:02.882Z,34.64
2022-12-13T03:15:34.280Z,35.24
2022-12-13T03:16:05.722Z,34.86
2022-12-13T03:16:37.122Z,34.92
2022-12-13T03:17:08.511Z,35.19
2022-12-13T03:17:39.899Z,34.77
2022-12-13T03:18:11.300Z,34.55
2022-12-13T03:18:42.692Z,35.18
2022-12-13T03:19:14.086Z,34.85
2022-12-13T03:19:45.475Z,34.99
2022-12-13T03:20:22.678Z,35.19
2022-12-13T03:20:54.952Z,34.79
2022-12-13T03:21:26.349Z,34.89
2022-12-13T03:21:57.835Z,34.64
2022-12-13T03:22:29.322Z,34.63
2022-12-13T03:23:00.713Z,34.50
2022-12-13T03:23:32.104Z,34.98
2022-12-13T03:24:03.487Z,34.64
2022-12-13T03:24:34.903Z,34.65
2022-12-13T03:25:06.281Z,34.85
2022-12-13T03:25:37.687Z,35.06
2022-12-13T03:26:09.101Z,35.03
2022-12-13T03:26:40.506Z,34.50
2022-12-13T03:27:11.899Z,34.83
2022-12-13T03:27:43.383Z,34.81
2022-12-13T03:28:14.770Z,35.44
2022-12-13T03:28:46.159Z,35.14
2022-12-13T03:29:23.825Z,34.68
2022-12-13T03:29:56.272Z,34.69
2022-12-13T03:30:27.675Z,35.02
2022-12-13T03:30:59.132Z,34.70
2022-12-13T03:31:30.602Z,34.74
2022-12-13T03:32:02.062Z,34.81
2022-12-13T03:32:33.442Z,34.90
2022-12-13T03:33:04.919Z,34.57
2022-12-13T03:33:36.309Z,35.00
2022-12-13T03:34:07.714Z,34.77
2022-12-13T03:34:43.242Z,34.92
2022-12-13T03:35:21.963Z,34.88
2022-12-13T03:35:53.950Z,34.68
2022-12-13T03:36:25.340Z,34.88
2022-12-13T03:36:56.744Z,35.19
2022-12-13T03:37:32.357Z,34.69
2022-12-13T03:38:03.743Z,35.12
2022-12-13T03:38:35.193Z,35.22
2022-12-13T03:39:06.588Z,34.90
2022-12-13T03:39:38.020Z,35.10
2022-12-13T03:40:09.440Z,34.67
2022-12-13T03:40:40.832Z,34.62
2022-12-13T03:41:12.226Z,34.51
2022-12-13T03:41:43.625Z,35.27
2022-12-13T03:42:15.019Z,35.00
2022-12-13T03:42:46.411Z,34.67
2022-12-13T03:43:22.179Z,34.87
2022-12-13T03:43:54.337Z,34.99
2022-12-13T03:44:25.724Z,35.14
2022-12-13T03:45:03.154Z,35.02
2022-12-13T03:45:34.539Z,34.66
2022-12-13T03:46:05.960Z,34.80
2022-12-13T03:46:37.512Z,35.01
2022-12-13T03:47:08.951Z,34.94
2022-12-13T03:47:40.334Z,35.01
2022-12-13T03:48:11.746Z,34.87
2022-12-13T03:48:43.134Z,34.85
2022-12-13T03:49:17.333Z,34.87
2022-12-13T03:49:54.052Z,34.91
2022-12-13T03:50:27.510Z,34.88
2022-12-13T03:50:59.079Z,34.59
2022-12-13T03:51:30.471Z,35.19
2022-12-13T03:52:01.866Z,35.18
2022-12-13T03:52:33.278Z,34.87
2022-12-13T03:53:04.707Z,34.71
2022-12-13T03:53:36.099Z,35.05
2022-12-13T03:54:07.514Z,34.93
2022-12-13T03:54:38.939Z,34.98
2022-12-13T03:55:16.852Z,34.72
2022-12-13T03:55:48.419Z,35.17
2022-12-13T03:56:19.807Z,34.80
2022-12-13T03:56:51.217Z,34.63
2022-12-13T03:57:22.631Z,34.67
2022-12-13T03:57:54.014Z,34.91
2022-12-13T03:58:25.398Z,34.72
2022-12-13T03:58:56.855Z,35.08
2022-12-13T03:59:28.238Z,34.98
2022-12-13T03:59:59.676Z,34.94
2022-12-13T04:00:31.059Z,35.19
2022-12-13T04:01:02.452Z,35.04
2022-12-13T04:01:33.903Z,34.98
2022-12-13T04:02:05.331Z,34.85
2022-12-13T04:02:36.828Z,34.99
2022-12-13T04:03:08.344Z,35.09
2022-12-13T04:03:39.782Z,35.18
2022-12-13T04:04:11.171Z,34.54
2022-12-13T04:04:42.556Z,35.10
2022-12-13T04:05:14.344Z,35.26
2022-12-13T04:05:45.989Z,35.07
2022-12-13T04:06:22.165Z,34.94
2022-12-13T04:06:55.443Z,34.82
2022-12-13T04:07:26.832Z,34.93
2022-12-13T04:08:05.896Z,34.96
2022-12-13T04:08:53.571Z,35.29
2022-12-13T04:09:24.991Z,35.32
2022-12-13T04:09:56.384Z,34.73
2022-12-13T04:10:27.902Z,35.19
2022-12-13T04:10:59.307Z,35.20
2022-12-13T04:11:30.699Z,34.90
2022-12-13T04:12:02.097Z,35.05
2022-12-13T04:12:33.478Z,35.23
2022-12-13T04:13:04.920Z,35.23
2022-12-13T04:13:36.316Z,35.25
2022-12-13T04:14:07.726Z,35.00
2022-12-13T04:14:39.134Z,35.02
2022-12-13T04:15:10.531Z,35.11
2022-12-13T04:15:42.043Z,35.28
2022-12-13T04:16:13.499Z,35.18
2022-12-13T04:16:44.922Z,34.98
2022-12-13T04:17:16.328Z,35.33
2022-12-13T04:17:51.134Z,34.61
2022-12-13T04:18:22.731Z,35.01
2022-12-13T04:18:54.113Z,35.12
2022-12-13T04:19:25.516Z,34.88
2022-12-13T04:19:56.920Z,35.37
2022-12-13T04:20:28.311Z,35.25
2022-12-13T04:20:59.749Z,35.06
2022-12-13T04:21:31.138Z,35.01
2022-12-13T04:22:02.519Z,35.08
2022-12-13T04:22:33.922Z,35.31
2022-12-13T04:23:09.969Z,34.93
2022-12-13T04:23:41.994Z,35.08
2022-12-13T04:24:13.387Z,34.89
2022-12-13T04:24:44.794Z,35.02
2022-12-13T04:25:16.468Z,35.30
2022-12-13T04:25:47.975Z,35.26
2022-12-13T04:26:19.474Z,34.86
2022-12-13T04:26:50.960Z,35.20
2022-12-13T04:27:22.355Z,35.14
2022-12-13T04:27:53.774Z,34.89
2022-12-13T04:28:25.192Z,35.24
2022-12-13T04:28:56.601Z,35.16
2022-12-13T04:29:27.988Z,35.03
2022-12-13T04:30:06.169Z,35.37
2022-12-13T04:30:37.583Z,34.76
2022-12-13T04:31:09.013Z,34.84
2022-12-13T04:31:40.581Z,34.97
2022-12-13T04:32:26.114Z,35.17
2022-12-13T04:32:58.686Z,34.91
2022-12-13T04:33:30.072Z,34.90
2022-12-13T04:34:01.463Z,35.18
2022-12-13T04:34:37.331Z,35.19
2022-12-13T04:35:09.055Z,34.82
2022-12-13T04:35:40.457Z,34.98
2022-12-13T04:36:11.850Z,35.25
2022-12-13T04:36:43.290Z,35.47
2022-12-13T04:37:14.685Z,34.86
2022-12-13T04:37:46.070Z,35.41
2022-12-13T04:38:17.464Z,35.41
2022-12-13T04:38:48.851Z,35.09
2022-12-13T04:39:22.737Z,35.52
2022-12-13T04:39:54.283Z,35.30
2022-12-13T04:40:32.460Z,35.22
2022-12-13T04:41:03.869Z,35.08
2022-12-13T04:41:35.259Z,35.19
2022-12-13T04:42:06.769Z,35.53
2022-12-13T04:42:38.154Z,35.22
2022-12-13T04:43:09.567Z,35.19
2022-12-13T04:43:40.974Z,35.15
2022-12-13T04:44:27.952Z,35.41
2022-12-13T04:45:01.215Z,35.03
2022-12-13T04:45:32.674Z,35.18
2022-12-13T04:46:04.182Z,35.10
2022-12-13T04:46:35.635Z,35.66
2022-12-13T04:47:07.103Z,35.01
2022-12-13T04:47:38.569Z,35.45
2022-12-13T04:48:09.959Z,35.47
2022-12-13T04:48:41.349Z,35.23
2022-12-13T04:49:12.739Z,34.66
2022-12-13T04:49:44.130Z,35.67
2022-12-13T04:50:15.521Z,35.27
2022-12-13T04:50:46.907Z,34.93
2022-12-13T04:51:18.300Z,35.32
2022-12-13T04:51:49.688Z,35.24
2022-12-13T04:52:22.160Z,35.43
2022-12-13T04:52:54.259Z,35.26
2022-12-13T04:53:25.642Z,35.28
2022-12-13T04:53:57.027Z,35.01
2022-12-13T04:54:48.405Z,34.95
2022-12-13T04:55:27.408Z,35.29
2022-12-13T04:55:58.796Z,35.29
2022-12-13T04:56:30.190Z,34.86
2022-12-13T04:57:01.590Z,35.00
2022-12-13T04:57:33.196Z,34.97
2022-12-13T04:58:04.734Z,35.23
2022-12-13T04:58:36.158Z,35.09
2022-12-13T04:59:07.547Z,35.05
2022-12-13T04:59:38.960Z,35.19
2022-12-13T05:00:10.388Z,35.54
2022-12-13T05:00:41.775Z,35.04
2022-12-13T05:01:15.969Z,35.10
2022-12-13T05:01:47.398Z,35.11
2022-12-13T05:02:23.815Z,35.61
2022-12-13T05:02:55.758Z,35.06
2022-12-13T05:03:27.274Z,35.38
2022-12-13T05:03:58.659Z,35.25
2022-12-13T05:04:32.987Z,35.18
2022-12-13T05:05:04.710Z,35.17
2022-12-13T05:05:36.100Z,35.25
2022-12-13T05:06:07.487Z,35.61
2022-12-13T05:06:58.755Z,35.41
2022-12-13T05:07:30.143Z,35.58
2022-12-13T05:08:01.567Z,34.95
2022-12-13T05:08:33.088Z,35.38
2022-12-13T05:09:04.519Z,35.64
2022-12-13T05:09:42.939Z,35.35
2022-12-13T05:10:33.943Z,35.20
2022-12-13T05:11:05.729Z,35.65
2022-12-13T05:11:37.123Z,35.59
2022-12-13T05:12:21.875Z,35.60
2022-12-13T05:12:54.346Z,35.67
2022-12-13T05:13:25.742Z,35.11
2022-12-13T05:13:57.250Z,35.13
2022-12-13T05:14:28.638Z,35.64
2022-12-13T05:15:00.031Z,35.28
2022-12-13T05:15:31.442Z,35.18
2022-12-13T05:16:02.825Z,35.41
2022-12-13T05:16:34.264Z,35.39
2022-12-13T05:17:05.666Z,35.28
2022-12-13T05:17:37.066Z,35.41
2022-12-13T05:18:09.786Z,35.17
2022-12-13T05:18:42.200Z,35.31
2022-12-13T05:19:13.734Z,35.15
2022-12-13T05:19:45.117Z,35.46
2022-12-13T05:20:16.530Z,35.06
2022-12-13T05:20:47.916Z,35.02
2022-12-13T05:21:19.308Z,35.28
2022-12-13T05:21:50.689Z,35.68
2022-12-13T05:22:22.099Z,35.58
2022-12-13T05:22:53.512Z,35.46
2022-12-13T05:23:24.895Z,35.39
2022-12-13T05:23:56.335Z,35.57
2022-12-13T05:24:27.837Z,35.63
2022-12-13T05:24:59.228Z,35.08
2022-12-13T05:25:30.635Z,35.95
2022-12-13T05:26:02.031Z,35.44
2022-12-13T05:26:33.423Z,35.19
2022-12-13T05:27:26.277Z,36.01
2022-12-13T05:27:57.072Z,35.47
2022-12-13T05:28:29.100Z,35.71
2022-12-13T05:29:00.568Z,35.71
2022-12-13T05:29:32.039Z,35.65
2022-12-13T05:30:05.109Z,35.66
2022-12-13T05:30:36.851Z,35.20
2022-12-13T05:31:23.160Z,35.19
2022-12-13T05:31:55.177Z,35.13
2022-12-13T05:32:26.583Z,34.98
2022-12-13T05:32:57.971Z,35.63
2022-12-13T05:33:29.363Z,35.62
2022-12-13T05:34:01.490Z,35.81
2022-12-13T05:34:33.174Z,35.52
2022-12-13T05:35:04.569Z,35.70
2022-12-13T05:35:35.954Z,35.17
2022-12-13T05:36:07.415Z,35.64
2022-12-13T05:36:38.809Z,35.64
2022-12-13T05:37:10.201Z,35.31
2022-12-13T05:37:41.601Z,35.81
2022-12-13T05:38:13.008Z,35.59
2022-12-13T05:38:44.396Z,35.48
2022-12-13T05:39:28.069Z,35.60
2022-12-13T05:40:00.939Z,35.46
2022-12-13T05:40:32.351Z,35.25
2022-12-13T05:41:03.749Z,35.87
2022-12-13T05:41:35.139Z,35.64
2022-12-13T05:42:06.531Z,35.78
2022-12-13T05:42:37.923Z,35.72
2022-12-13T05:43:22.256Z,35.50
2022-12-13T05:43:53.874Z,35.77
2022-12-13T05:44:25.273Z,35.88
2022-12-13T05:44:56.666Z,35.87
2022-12-13T05:45:28.275Z,35.23
2022-12-13T05:45:59.713Z,35.32
2022-12-13T05:46:31.141Z,35.88
2022-12-13T05:47:02.999Z,35.62
2022-12-13T05:47:34.518Z,35.98
2022-12-13T05:48:05.899Z,35.58
2022-12-13T05:48:37.312Z,35.84
2022-12-13T05:49:08.719Z,35.89
2022-12-13T05:49:40.109Z,35.57
2022-12-13T05:50:11.524Z,35.66
2022-12-13T05:50:43.027Z,35.34
2022-12-13T05:51:14.416Z,35.55
2022-12-13T05:51:45.855Z,35.64
2022-12-13T05:52:17.244Z,35.31
2022-12-13T05:52:48.639Z,35.69
2022-12-13T05:53:30.315Z,35.82
2022-12-13T05:54:02.575Z,35.90
2022-12-13T05:54:33.963Z,35.29
2022-12-13T05:55:05.355Z,35.49
2022-12-13T05:55:36.746Z,35.68
2022-12-13T05:56:08.258Z,35.84
2022-12-13T05:56:39.669Z,35.46
2022-12-13T05:57:11.076Z,35.61
2022-12-13T05:57:42.483Z,35.93
2022-12-13T05:58:23.070Z,35.58
2022-12-13T05:58:54.863Z,35.45
2022-12-13T05:59:26.263Z,35.67
2022-12-13T05:59:57.690Z,35.33
2022-12-13T06:00:30.856Z,35.53
2022-12-13T06:01:02.531Z,35.37
2022-12-13T06:01:33.978Z,35.37
2022-12-13T06:02:05.473Z,35.60
2022-12-13T06:02:37.103Z,35.64
2022-12-13T06:03:08.738Z,35.58
2022-12-13T06:03:40.342Z,35.61
2022-12-13T06:04:11.838Z,35.52
2022-12-13T06:04:43.226Z,35.58
2022-12-13T06:05:14.936Z,35.67
2022-12-13T06:05:46.478Z,35.60
2022-12-13T06:06:17.889Z,35.83
2022-12-13T06:06:49.330Z,35.56
2022-12-13T06:07:22.845Z,35.75
2022-12-13T06:07:57.144Z,35.49
2022-12-13T06:08:29.376Z,35.72
2022-12-13T06:09:00.823Z,35.56
2022-12-13T06:09:32.235Z,35.75
2022-12-13T06:10:11.418Z,35.78
2022-12-13T06:10:42.801Z,35.69
2022-12-13T06:11:31.251Z,35.99
2022-12-13T06:12:03.744Z,35.61
2022-12-13T06:12:55.108Z,35.88
2022-12-13T06:13:32.705Z,35.86
2022-12-13T06:14:04.115Z,35.23
2022-12-13T06:14:53.346Z,35.41
2022-12-13T06:15:34.544Z,35.52
2022-12-13T06:16:06.471Z,35.60
2022-12-13T06:16:53.171Z,35.46
2022-12-13T06:17:24.656Z,35.37
2022-12-13T06:17:56.047Z,35.68
2022-12-13T06:18:27.448Z,35.75
2022-12-13T06:19:04.220Z,35.45
2022-12-13T06:19:36.078Z,35.60
2022-12-13T06:20:23.372Z,35.46
2022-12-13T06:20:55.955Z,35.76
2022-12-13T06:21:27.341Z,35.87
2022-12-13T06:21:58.740Z,35.76
2022-12-13T06:22:30.222Z,35.71
2022-12-13T06:23:01.631Z,35.89
2022-12-13T06:23:33.024Z,35.47
2022-12-13T06:24:04.426Z,35.77
2022-12-13T06:24:35.821Z,35.98
2022-12-13T06:25:07.210Z,35.67
2022-12-13T06:25:58.590Z,35.35
2022-12-13T06:26:30.031Z,35.43
2022-12-13T06:27:01.427Z,35.68
2022-12-13T06:27:32.887Z,35.94
2022-12-13T06:28:04.294Z,35.71
2022-12-13T06:28:35.688Z,35.77
2022-12-13T06:29:07.082Z,35.95
2022-12-13T06:29:38.766Z,35.71
2022-12-13T06:30:10.385Z,35.90
2022-12-13T06:30:42.660Z,35.63
2022-12-13T06:31:14.357Z,36.12
2022-12-13T06:31:45.844Z,35.73
2022-12-13T06:32:17.239Z,35.67
2022-12-13T06:32:48.710Z,35.87
2022-12-13T06:33:23.437Z,35.97
2022-12-13T06:33:55.036Z,35.74
2022-12-13T06:34:26.444Z,35.90
2022-12-13T06:34:57.838Z,35.79
2022-12-13T06:35:30.151Z,35.87
2022-12-13T06:36:02.891Z,35.50
2022-12-13T06:36:34.286Z,35.81
2022-12-13T06:37:05.739Z,35.74
2022-12-13T06:37:37.143Z,35.37
2022-12-13T06:38:12.256Z,35.97
2022-12-13T06:38:43.876Z,36.06
2022-12-13T06:39:15.343Z,35.91
2022-12-13T06:39:46.731Z,36.30
2022-12-13T06:40:22.936Z,35.41
2022-12-13T06:40:54.664Z,36.09
2022-12-13T06:41:31.900Z,35.77
2022-12-13T06:42:03.544Z,35.72
2022-12-13T06:42:34.936Z,35.47
2022-12-13T06:43:06.341Z,35.90
2022-12-13T06:43:37.816Z,35.76
2022-12-13T06:44:09.196Z,35.82
2022-12-13T06:44:40.584Z,35.80
2022-12-13T06:45:11.981Z,35.93
2022-12-13T06:45:43.396Z,35.86
2022-12-13T06:46:14.884Z,35.50
2022-12-13T06:46:46.307Z,35.86
2022-12-13T06:47:32.225Z,35.77
2022-12-13T06:48:03.956Z,35.86
2022-12-13T06:48:35.362Z,35.76
2022-12-13T06:49:06.840Z,35.67
2022-12-13T06:49:38.227Z,35.75
2022-12-13T06:50:09.613Z,36.02
2022-12-13T06:50:40.999Z,36.16
2022-12-13T06:51:12.394Z,36.11
2022-12-13T06:51:43.779Z,36.23
2022-12-13T06:52:15.164Z,35.76
2022-12-13T06:52:46.560Z,35.90
2022-12-13T06:53:17.960Z,36.24
2022-12-13T06:53:49.366Z,35.90
2022-12-13T06:54:22.109Z,36.11
2022-12-13T06:54:59.673Z,35.99
2022-12-13T06:55:31.303Z,36.07
2022-12-13T06:56:02.696Z,36.04
2022-12-13T06:56:34.080Z,35.86
2022-12-13T06:57:05.471Z,36.06
2022-12-13T06:57:36.855Z,36.20